Time;durP1;ratioP1;P1;durP2;ratioP2;P2;SDS_P1;SDS_P2;PMS_P1;PMS_P2;Temp;Humidity;BMP_temperature;BMP_pressure;BME280_temperature;BME280_humidity;BME280_pressure;Samples;Min_cycle;Max_cycle;Signal;HPM_P1;HPM_P2
2023/05/27 00:01:00;;;;;;;24.42;6.30;;;6.70;99.90;;;;;;5063748;28;20037;-63
2023/05/27 00:03:26;;;;;;;14.77;5.35;;;6.70;99.90;;;;;;5061421;28;20036;-62
2023/05/27 00:05:51;;;;;;;19.58;6.43;;;6.70;99.90;;;;;;5072618;28;20044;-61
2023/05/27 00:08:17;;;;;;;20.55;5.63;;;6.60;99.90;;;;;;5055073;28;20042;-61
2023/05/27 00:10:43;;;;;;;17.65;5.53;;;6.60;99.90;;;;;;5070900;28;20818;-61
2023/05/27 00:13:08;;;;;;;20.83;5.40;;;6.70;99.90;;;;;;5054329;28;20573;-62
2023/05/27 00:15:34;;;;;;;;;;;6.70;99.90;;;;;;5059906;28;20081;-61
2023/05/27 00:18:01;;;;;;;23.13;6.43;;;6.70;99.90;;;;;;5048904;28;19946;-61
2023/05/27 00:20:29;;;;;;;21.25;5.90;;;6.70;99.90;;;;;;5056093;28;20045;-62
2023/05/27 00:22:56;;;;;;;18.35;6.03;;;6.60;99.90;;;;;;5047432;28;20699;-61
2023/05/27 00:25:22;;;;;;;23.92;6.20;;;6.50;99.90;;;;;;5056915;28;20036;-62
2023/05/27 00:27:49;;;;;;;17.75;5.35;;;6.50;99.90;;;;;;5042610;28;20137;-62
2023/05/27 00:30:15;;;;;;;18.98;5.57;;;6.50;99.90;;;;;;5055519;28;20036;-62
2023/05/27 00:32:41;;;;;;;20.63;5.70;;;6.40;99.90;;;;;;5044260;28;20041;-62
2023/05/27 00:35:07;;;;;;;;;;;6.40;99.90;;;;;;5049894;28;20488;-61
2023/05/27 00:37:33;;;;;;;19.50;5.43;;;6.40;99.90;;;;;;5043534;28;20012;-62
2023/05/27 00:39:58;;;;;;;23.13;6.20;;;6.30;99.90;;;;;;5056903;28;20087;-62
2023/05/27 00:42:24;;;;;;;;;;;6.30;99.90;;;;;;5050681;28;20049;-63
2023/05/27 00:44:49;;;;;;;19.38;5.18;;;6.40;99.90;;;;;;5046750;28;19983;-60
2023/05/27 00:47:18;;;;;;;29.45;6.25;;;6.30;99.90;;;;;;5056306;28;20060;-63
2023/05/27 00:49:45;;;;;;;19.17;6.60;;;6.30;99.90;;;;;;5058474;28;20064;-63
2023/05/27 00:52:12;;;;;;;18.20;5.28;;;6.30;99.90;;;;;;5048352;28;20142;-62
2023/05/27 00:54:40;;;;;;;17.95;5.22;;;6.20;99.90;;;;;;5050847;28;20508;-62
2023/05/27 00:57:06;;;;;;;24.30;5.03;;;6.20;99.90;;;;;;5055101;28;20044;-62
2023/05/27 00:59:32;;;;;;;20.42;5.10;;;6.30;99.90;;;;;;5049992;28;20059;-61
2023/05/27 01:01:57;;;;;;;15.93;4.25;;;6.30;99.90;;;;;;5044448;28;20033;-63
2023/05/27 01:04:25;;;;;;;24.95;5.20;;;6.30;99.90;;;;;;5041264;28;20547;-62
2023/05/27 01:07:12;;;;;;;22.17;5.93;;;6.30;99.90;;;;;;5050121;28;20045;-63
2023/05/27 01:09:52;;;;;;;18.27;4.97;;;6.20;99.90;;;;;;5050726;28;20045;-63
2023/05/27 01:12:39;;;;;;;25.25;5.90;;;6.20;99.90;;;;;;5031152;28;20032;-62
2023/05/27 01:15:07;;;;;;;17.10;4.65;;;6.20;99.90;;;;;;5055504;28;20044;-60
2023/05/27 01:17:37;;;;;;;21.38;5.50;;;6.20;99.90;;;;;;5043717;28;20278;-62
2023/05/27 01:20:05;;;;;;;24.70;5.20;;;6.20;99.90;;;;;;5055477;28;20052;-64
2023/05/27 01:22:31;;;;;;;18.63;5.28;;;6.10;99.90;;;;;;5044963;28;20120;-63
2023/05/27 01:24:57;;;;;;;26.02;5.88;;;6.20;99.90;;;;;;5054843;28;20040;-62
2023/05/27 01:27:26;;;;;;;22.02;5.63;;;6.20;99.90;;;;;;5051699;28;20049;-61
2023/05/27 01:29:53;;;;;;;19.83;5.10;;;6.20;99.90;;;;;;5051177;28;20041;-62
2023/05/27 01:32:51;;;;;;;23.05;6.40;;;6.20;99.90;;;;;;5046899;28;20073;-62
2023/05/27 01:35:20;;;;;;;17.23;4.93;;;6.20;99.90;;;;;;5036558;28;20049;-63
2023/05/27 01:37:46;;;;;;;25.10;5.63;;;6.20;99.90;;;;;;5048371;28;20094;-61
2023/05/27 01:40:14;;;;;;;22.80;5.68;;;6.20;99.90;;;;;;5048468;28;20048;-61
2023/05/27 01:42:41;;;;;;;14.40;4.95;;;6.20;99.90;;;;;;5050202;28;20037;-59
2023/05/27 01:45:08;;;;;;;28.35;5.78;;;6.10;99.90;;;;;;5055600;28;20037;-62
2023/05/27 01:47:34;;;;;;;16.42;4.97;;;6.10;99.90;;;;;;5049255;28;20045;-62
2023/05/27 01:50:00;;;;;;;20.80;6.40;;;6.10;99.90;;;;;;5056089;28;20112;-62
2023/05/27 01:52:26;;;;;;;20.35;4.47;;;6.10;99.90;;;;;;5037276;28;20037;-61
2023/05/27 01:54:52;;;;;;;;;;;6.10;99.90;;;;;;5050215;28;20049;-61
2023/05/27 01:57:18;;;;;;;20.50;5.28;;;6.00;99.90;;;;;;5053032;28;19920;-61
2023/05/27 01:59:43;;;;;;;13.73;5.43;;;6.00;99.90;;;;;;5042655;28;20041;-63
2023/05/27 02:02:10;;;;;;;22.02;5.15;;;6.00;99.90;;;;;;5055063;28;20078;-63
2023/05/27 02:04:36;;;;;;;16.23;5.28;;;5.90;99.90;;;;;;5044278;28;20098;-57
2023/05/27 02:07:03;;;;;;;13.45;4.80;;;5.90;99.90;;;;;;5061208;28;20048;-62
2023/05/27 02:09:28;;;;;;;16.80;6.03;;;6.00;99.90;;;;;;5045855;28;20037;-61
2023/05/27 02:11:54;;;;;;;16.42;5.10;;;5.90;99.90;;;;;;5048197;28;20044;-63
2023/05/27 02:14:19;;;;;;;18.13;4.47;;;5.90;99.90;;;;;;5038774;28;20037;-61
2023/05/27 02:16:45;;;;;;;;;;;5.80;99.90;;;;;;5058440;28;20044;-60
2023/05/27 02:19:11;;;;;;;15.65;5.57;;;5.80;99.90;;;;;;5046435;28;20264;-61
2023/05/27 02:21:37;;;;;;;22.60;4.97;;;5.80;99.90;;;;;;5054655;28;20066;-60
2023/05/27 02:24:03;;;;;;;21.17;4.82;;;5.80;99.90;;;;;;5038650;28;20048;-62
2023/05/27 02:26:28;;;;;;;20.45;5.50;;;5.70;99.90;;;;;;5048762;28;20040;-61
2023/05/27 02:28:54;;;;;;;24.50;5.03;;;5.80;99.90;;;;;;5046565;28;20380;-62
2023/05/27 02:31:20;;;;;;;;;;;5.80;99.90;;;;;;5052082;28;20083;-57
2023/05/27 02:33:46;;;;;;;16.65;4.70;;;5.70;99.90;;;;;;5040736;28;19920;-59
2023/05/27 02:36:12;;;;;;;19.70;5.03;;;5.70;99.90;;;;;;5061156;28;20055;-62
2023/05/27 02:38:38;;;;;;;15.70;4.25;;;5.70;99.90;;;;;;5041672;28;20048;-62
2023/05/27 02:41:03;;;;;;;15.02;4.82;;;5.70;99.90;;;;;;5056386;28;20229;-61
2023/05/27 02:43:29;;;;;;;;;;;5.70;99.90;;;;;;5049437;28;20044;-60
2023/05/27 02:45:55;;;;;;;14.77;5.32;;;5.70;99.90;;;;;;5052825;28;19924;-61
2023/05/27 02:48:20;;;;;;;23.92;5.38;;;5.70;99.90;;;;;;5040882;28;20040;-62
2023/05/27 02:50:46;;;;;;;;;;;5.60;99.90;;;;;;5053728;28;20052;-62
2023/05/27 02:53:12;;;;;;;14.90;4.60;;;5.60;99.90;;;;;;5039842;28;20405;-62
2023/05/27 02:55:37;;;;;;;15.32;5.30;;;5.60;99.90;;;;;;5055023;28;20621;-61
2023/05/27 02:58:06;;;;;;;;;;;5.60;99.90;;;;;;5046026;28;20186;-62
2023/05/27 03:00:33;;;;;;;17.83;5.15;;;5.60;99.90;;;;;;5046540;28;19951;-61
2023/05/27 03:02:59;;;;;;;27.35;5.97;;;5.50;99.90;;;;;;5048070;28;20041;-63
2023/05/27 03:05:24;;;;;;;19.98;5.60;;;5.40;99.90;;;;;;5039528;28;20051;-60
2023/05/27 03:07:50;;;;;;;17.10;5.18;;;5.30;99.90;;;;;;5056097;28;20037;-62
2023/05/27 03:10:16;;;;;;;19.33;6.03;;;5.40;99.90;;;;;;5049440;28;20040;-62
2023/05/27 03:12:41;;;;;;;16.88;4.70;;;5.30;99.90;;;;;;5036795;28;20037;-62
2023/05/27 03:15:07;;;;;;;19.30;5.68;;;5.40;99.90;;;;;;5041566;28;20032;-60
2023/05/27 03:17:36;;;;;;;;;;;5.30;99.90;;;;;;5046680;28;20393;-63
2023/05/27 03:20:03;;;;;;;23.45;6.10;;;5.30;99.90;;;;;;5042300;28;19917;-63
2023/05/27 03:22:29;;;;;;;23.83;5.50;;;5.30;99.90;;;;;;5041512;28;20048;-60
2023/05/27 03:24:55;;;;;;;24.77;5.88;;;5.30;99.90;;;;;;5047213;28;20041;-61
2023/05/27 03:27:20;;;;;;;25.85;6.28;;;5.30;99.90;;;;;;5051503;28;20040;-62
2023/05/27 03:29:46;;;;;;;19.58;5.88;;;5.30;99.90;;;;;;5046276;28;20033;-62
2023/05/27 03:32:12;;;;;;;18.48;5.57;;;5.30;99.90;;;;;;5049801;28;20041;-61
2023/05/27 03:34:38;;;;;;;19.00;5.03;;;5.20;99.90;;;;;;5040274;28;20121;-62
2023/05/27 03:37:04;;;;;;;18.00;4.95;;;5.30;99.90;;;;;;5054085;28;20044;-62
2023/05/27 03:39:29;;;;;;;27.10;6.65;;;5.20;99.90;;;;;;5038672;28;20041;-62
2023/05/27 03:41:55;;;;;;;;;;;5.30;99.90;;;;;;5046160;28;20036;-62
2023/05/27 03:44:21;;;;;;;18.85;5.65;;;5.20;99.90;;;;;;5046979;28;20231;-62
2023/05/27 03:46:46;;;;;;;;;;;5.30;99.90;;;;;;5051712;28;20090;-62
2023/05/27 03:49:12;;;;;;;19.85;6.10;;;5.30;99.90;;;;;;5048333;28;20291;-61
2023/05/27 03:51:38;;;;;;;16.98;5.72;;;5.40;99.90;;;;;;5046547;28;20036;-62
2023/05/27 03:54:04;;;;;;;18.77;5.40;;;5.50;99.90;;;;;;5051512;28;20041;-62
2023/05/27 03:56:29;;;;;;;19.20;6.45;;;5.70;99.90;;;;;;5051973;28;20056;-62
2023/05/27 03:58:56;;;;;;;17.27;5.50;;;5.80;99.90;;;;;;5041797;28;20075;-63
2023/05/27 04:01:22;;;;;;;17.10;5.35;;;6.10;99.90;;;;;;5050464;28;20041;-62
2023/05/27 04:03:48;;;;;;;20.83;5.25;;;6.10;99.90;;;;;;5058054;28;20399;-62
2023/05/27 04:06:14;;;;;;;12.18;5.22;;;6.10;99.90;;;;;;5054515;28;20110;-62
2023/05/27 04:08:40;;;;;;;15.18;5.40;;;6.00;99.90;;;;;;5053614;28;20728;-62
2023/05/27 04:11:09;;;;;;;12.75;4.78;;;6.00;99.90;;;;;;5052423;28;20059;-62
2023/05/27 04:13:35;;;;;;;16.80;5.03;;;6.20;99.90;;;;;;5049183;28;20044;-62
2023/05/27 04:16:01;;;;;;;13.20;5.00;;;6.20;99.90;;;;;;5053020;28;20442;-62
2023/05/27 04:18:26;;;;;;;13.55;5.18;;;6.30;99.90;;;;;;5056249;28;20057;-63
2023/05/27 04:20:52;;;;;;;;;;;6.60;99.90;;;;;;5053053;28;20718;-63
2023/05/27 04:23:18;;;;;;;12.20;4.97;;;7.10;99.90;;;;;;5050919;28;19928;-60
2023/05/27 04:25:43;;;;;;;;;;;7.60;99.90;;;;;;5056168;28;20049;-63
2023/05/27 04:28:09;;;;;;;14.02;4.72;;;7.70;99.90;;;;;;5060448;28;20351;-64
2023/05/27 04:30:35;;;;;;;;;;;7.80;99.90;;;;;;5065230;28;20045;-62
2023/05/27 04:33:01;;;;;;;13.35;5.25;;;8.20;99.90;;;;;;5036835;28;20424;-63
2023/05/27 04:35:30;;;;;;;15.63;5.05;;;9.00;99.90;;;;;;5035079;28;20610;-62
2023/05/27 04:37:58;;;;;;;20.10;5.15;;;8.90;99.90;;;;;;5033341;28;20124;-63
2023/05/27 04:40:24;;;;;;;18.80;6.13;;;8.50;99.90;;;;;;5035663;28;20065;-64
2023/05/27 04:42:50;;;;;;;15.63;5.43;;;8.00;99.90;;;;;;5036733;28;20040;-60
2023/05/27 04:45:16;;;;;;;;;;;8.00;99.90;;;;;;5034218;28;20535;-62
2023/05/27 04:47:41;;;;;;;15.70;5.30;;;7.90;99.90;;;;;;5044327;28;19925;-61
2023/05/27 04:50:08;;;;;;;;;;;8.00;99.90;;;;;;5039437;28;20037;-63
2023/05/27 04:52:38;;;;;;;12.70;5.43;;;8.00;99.90;;;;;;5030427;28;20011;-62
2023/05/27 04:55:09;;;;;;;10.30;4.95;;;8.20;99.90;;;;;;5040148;28;20040;-62
2023/05/27 04:57:35;;;;;;;16.77;5.93;;;8.30;99.90;;;;;;5035756;28;20680;-63
2023/05/27 05:02:34;;;;;;;15.40;5.15;;;8.50;99.90;;;;;;5037294;28;20068;-62
2023/05/27 05:05:13;;;;;;;14.40;4.93;;;8.70;99.90;;;;;;5043448;28;20045;-62
2023/05/27 05:07:41;;;;;;;14.00;5.50;;;8.90;99.90;;;;;;5042616;28;20634;-63
2023/05/27 05:10:08;;;;;;;17.67;5.82;;;8.90;99.90;;;;;;5045604;28;20037;-62
2023/05/27 05:12:35;;;;;;;15.15;5.30;;;9.30;99.90;;;;;;5038112;28;20438;-63
2023/05/27 05:15:01;;;;;;;12.63;3.95;;;9.60;99.90;;;;;;5045282;28;20055;-62
2023/05/27 05:17:27;;;;;;;18.95;5.18;;;10.50;99.90;;;;;;5044282;28;20043;-63
2023/05/27 05:19:52;;;;;;;;;;;11.00;99.90;;;;;;5044150;28;20127;-63
2023/05/27 05:22:19;;;;;;;16.88;4.95;;;11.60;99.90;;;;;;5040386;28;20000;-63
2023/05/27 05:24:47;;;;;;;16.13;4.72;;;12.20;99.90;;;;;;5041084;28;20072;-63
2023/05/27 05:27:16;;;;;;;14.70;4.68;;;12.80;99.90;;;;;;5041289;28;20051;-63
2023/05/27 05:29:42;;;;;;;13.27;4.43;;;12.60;99.90;;;;;;5038446;28;20043;-64
2023/05/27 05:32:10;;;;;;;;;;;12.50;99.90;;;;;;5039546;28;20045;-63
2023/05/27 05:34:36;;;;;;;13.82;5.05;;;12.50;99.90;;;;;;5040093;28;19920;-63
2023/05/27 05:37:02;;;;;;;;;;;12.60;99.90;;;;;;5048728;28;20153;-62
2023/05/27 05:39:27;;;;;;;25.38;5.93;;;13.10;99.90;;;;;;5039640;28;19916;-63
2023/05/27 05:41:53;;;;;;;;;;;14.40;99.90;;;;;;5042297;28;20029;-63
2023/05/27 05:44:19;;;;;;;20.48;4.85;;;14.80;99.90;;;;;;5040300;28;19917;-64
2023/05/27 05:46:44;;;;;;;;;;;14.40;99.80;;;;;;5046489;28;20045;-64
2023/05/27 05:49:10;;;;;;;14.85;4.93;;;14.60;99.60;;;;;;5040478;28;19917;-62
2023/05/27 05:51:35;;;;;;;;;;;14.70;99.00;;;;;;5030883;28;20249;-64
2023/05/27 05:54:01;;;;;;;24.30;5.18;;;14.60;99.90;;;;;;5043931;28;20311;-62
2023/05/27 05:56:27;;;;;;;;;;;15.00;99.30;;;;;;5039720;28;20758;-63
2023/05/27 05:58:53;;;;;;;13.68;4.65;;;14.60;99.20;;;;;;5038580;28;19920;-62
2023/05/27 06:01:18;;;;;;;21.60;6.05;;;14.60;99.00;;;;;;5044144;28;20065;-64
2023/05/27 06:03:44;;;;;;;17.45;4.75;;;14.30;99.50;;;;;;5041380;28;20025;-60
2023/05/27 06:06:09;;;;;;;19.42;4.53;;;14.70;99.60;;;;;;5038764;28;20047;-64
2023/05/27 06:08:35;;;;;;;19.73;5.22;;;15.20;99.10;;;;;;5035877;28;20041;-63
2023/05/27 06:11:01;;;;;;;14.18;4.70;;;15.50;98.70;;;;;;5042316;28;20793;-63
2023/05/27 06:13:26;;;;;;;;;;;16.20;96.30;;;;;;5037673;28;20051;-56
2023/05/27 06:15:52;;;;;;;14.02;4.97;;;16.90;95.80;;;;;;5040369;28;20285;-64
2023/05/27 06:18:18;;;;;;;;;;;16.90;95.10;;;;;;5040511;28;20039;-63
2023/05/27 06:20:43;;;;;;;22.40;4.30;;;16.80;95.20;;;;;;5036899;28;19999;-63
2023/05/27 06:23:09;;;;;;;;;;;17.30;95.20;;;;;;5038034;28;20041;-63
2023/05/27 06:25:34;;;;;;;21.30;5.10;;;17.50;93.70;;;;;;5043397;28;19920;-64
2023/05/27 06:28:00;;;;;;;;;;;17.30;94.70;;;;;;5034952;28;20091;-62
2023/05/27 06:30:26;;;;;;;20.02;4.65;;;16.90;95.10;;;;;;5042436;28;19991;-61
2023/05/27 06:32:52;;;;;;;12.75;4.57;;;16.20;95.80;;;;;;5035350;28;20141;-61
2023/05/27 06:35:18;;;;;;;;;;;16.50;95.60;;;;;;5041135;28;20115;-62
2023/05/27 06:37:44;;;;;;;16.23;5.20;;;16.20;95.10;;;;;;5037836;28;20140;-63
2023/05/27 06:40:10;;;;;;;22.80;5.50;;;15.70;95.60;;;;;;5044213;28;20052;-63
2023/05/27 06:42:37;;;;;;;16.88;4.85;;;15.70;96.20;;;;;;5039217;28;20033;-62
2023/05/27 06:45:03;;;;;;;19.98;5.07;;;16.60;95.90;;;;;;5040301;28;20481;-62
2023/05/27 06:47:28;;;;;;;13.25;4.30;;;17.10;94.90;;;;;;5040308;28;20409;-63
2023/05/27 06:49:54;;;;;;;13.82;4.47;;;17.40;94.30;;;;;;5043796;28;20348;-62
2023/05/27 06:52:20;;;;;;;16.80;4.68;;;17.30;94.20;;;;;;5037457;28;20033;-62
2023/05/27 06:54:47;;;;;;;23.50;5.68;;;16.00;94.90;;;;;;5040178;28;20044;-63
2023/05/27 06:57:12;;;;;;;16.10;5.32;;;15.30;96.00;;;;;;5032803;28;20067;-61
2023/05/27 06:59:38;;;;;;;;;;;15.40;96.30;;;;;;5040288;28;20044;-61
2023/05/27 07:02:04;;;;;;;16.40;4.38;;;16.20;95.20;;;;;;5049392;28;19920;-63
2023/05/27 07:04:29;;;;;;;18.15;4.25;;;16.60;94.80;;;;;;5052161;28;20045;-63
2023/05/27 07:06:55;;;;;;;;;;;17.30;95.40;;;;;;5055684;28;20040;-62
2023/05/27 07:09:20;;;;;;;24.25;5.80;;;18.10;92.80;;;;;;5049738;28;19917;-62
2023/05/27 07:11:46;;;;;;;12.07;4.45;;;18.00;92.00;;;;;;5054744;28;20036;-63
2023/05/27 07:14:12;;;;;;;14.73;5.70;;;18.00;92.60;;;;;;5056835;28;20068;-62
2023/05/27 07:16:37;;;;;;;22.10;4.85;;;18.00;92.90;;;;;;5056024;28;20062;-63
2023/05/27 07:19:03;;;;;;;15.25;4.88;;;18.20;92.20;;;;;;5051087;28;20500;-63
2023/05/27 07:21:29;;;;;;;11.32;4.60;;;18.80;92.00;;;;;;5047003;28;20449;-62
2023/05/27 07:23:58;;;;;;;17.58;4.43;;;19.40;91.20;;;;;;5054803;28;20060;-63
2023/05/27 07:26:25;;;;;;;11.77;4.40;;;20.20;90.30;;;;;;5046099;28;20045;-63
2023/05/27 07:28:51;;;;;;;13.93;4.97;;;20.80;86.20;;;;;;5055603;28;20132;-62
2023/05/27 07:31:17;;;;;;;25.88;5.65;;;21.30;84.40;;;;;;5059128;28;20044;-62
2023/05/27 07:33:43;;;;;;;14.48;3.88;;;22.00;82.30;;;;;;5056821;28;20032;-62
2023/05/27 07:36:10;;;;;;;13.65;4.43;;;23.00;79.80;;;;;;5052857;28;20048;-63
2023/05/27 07:38:36;;;;;;;14.10;4.63;;;23.90;73.90;;;;;;5055632;28;20037;-62
2023/05/27 07:41:01;;;;;;;15.98;4.35;;;24.40;72.00;;;;;;5053426;28;20041;-62
2023/05/27 07:43:27;;;;;;;17.50;5.30;;;24.80;72.60;;;;;;5049483;28;20076;-62
2023/05/27 07:45:53;;;;;;;19.42;5.00;;;24.90;66.30;;;;;;5052917;28;20076;-62
2023/05/27 07:48:18;;;;;;;14.18;4.13;;;24.50;67.00;;;;;;5052206;28;20697;-62
2023/05/27 07:50:44;;;;;;;9.57;3.85;;;25.10;64.90;;;;;;5055459;28;20067;-62
2023/05/27 07:53:09;;;;;;;12.27;4.10;;;25.60;66.00;;;;;;5056167;28;20033;-62
2023/05/27 07:55:35;;;;;;;11.65;4.10;;;26.70;62.10;;;;;;5052172;28;20101;-62
2023/05/27 07:58:01;;;;;;;15.55;5.32;;;27.00;61.70;;;;;;5055201;28;20044;-63
2023/05/27 08:00:26;;;;;;;15.10;4.13;;;27.20;58.00;;;;;;5049515;28;20047;-64
2023/05/27 08:02:52;;;;;;;12.25;3.70;;;27.20;58.80;;;;;;5047849;28;20545;-62
2023/05/27 08:05:18;;;;;;;14.20;4.10;;;27.80;58.60;;;;;;5059062;28;20485;-62
2023/05/27 08:07:43;;;;;;;11.05;3.67;;;28.50;56.40;;;;;;5061105;28;20044;-62
2023/05/27 08:10:09;;;;;;;11.25;4.18;;;28.20;55.50;;;;;;5057924;28;20495;-63
2023/05/27 08:12:35;;;;;;;12.73;4.20;;;28.60;54.10;;;;;;5053883;28;20147;-62
2023/05/27 08:15:01;;;;;;;10.27;4.00;;;28.60;52.60;;;;;;5050287;28;20040;-63
2023/05/27 08:17:26;;;;;;;15.30;4.43;;;28.60;53.50;;;;;;5054422;28;20045;-62
2023/05/27 08:19:52;;;;;;;14.07;4.00;;;28.90;54.50;;;;;;5051762;28;20501;-63
2023/05/27 08:22:17;;;;;;;13.60;4.53;;;27.70;54.70;;;;;;5051474;28;20033;-62
2023/05/27 08:24:43;;;;;;;13.10;4.32;;;26.80;54.60;;;;;;5055505;28;20052;-62
2023/05/27 08:27:16;;;;;;;11.70;4.13;;;26.60;56.80;;;;;;5062984;28;20041;-63
2023/05/27 08:29:42;;;;;;;29.08;5.18;;;26.40;56.60;;;;;;5052289;28;20117;-62
2023/05/27 08:32:08;;;;;;;13.77;4.32;;;25.80;54.30;;;;;;5056398;28;20083;-63
2023/05/27 08:34:35;;;;;;;15.45;4.47;;;25.50;55.70;;;;;;5054651;28;20041;-63
2023/05/27 08:37:01;;;;;;;15.40;4.50;;;25.10;56.70;;;;;;5056255;28;20066;-60
2023/05/27 08:39:27;;;;;;;17.33;4.30;;;23.90;57.40;;;;;;5059559;28;20036;-62
2023/05/27 08:41:56;;;;;;;13.57;4.43;;;23.10;61.30;;;;;;5051374;28;20691;-63
2023/05/27 08:44:23;;;;;;;15.38;4.15;;;23.10;59.80;;;;;;5057684;28;20044;-63
2023/05/27 08:46:50;;;;;;;12.50;3.85;;;23.60;58.20;;;;;;5065155;28;20121;-62
2023/05/27 08:49:16;;;;;;;12.68;4.53;;;23.00;58.50;;;;;;5056319;28;20036;-62
2023/05/27 08:51:43;;;;;;;15.82;4.75;;;22.20;61.60;;;;;;5051108;28;20037;-62
2023/05/27 08:54:09;;;;;;;18.10;4.63;;;21.80;65.30;;;;;;5064374;28;20255;-59
2023/05/27 08:56:36;;;;;;;14.90;4.30;;;21.40;65.90;;;;;;5048353;28;20794;-62
2023/05/27 08:59:02;;;;;;;14.00;5.13;;;21.00;67.30;;;;;;5060694;28;20086;-63
2023/05/27 09:01:30;;;;;;;14.90;5.05;;;20.40;69.20;;;;;;5055167;28;20048;-62
2023/05/27 09:03:56;;;;;;;14.88;5.22;;;19.70;72.40;;;;;;5057846;28;20406;-62
2023/05/27 09:06:22;;;;;;;20.73;5.28;;;19.50;70.90;;;;;;5053325;28;20489;-59
2023/05/27 09:08:48;;;;;;;19.60;6.00;;;18.60;74.40;;;;;;5056384;28;20040;-61
2023/05/27 09:11:25;;;;;;;19.90;5.18;;;18.20;76.10;;;;;;5055531;28;20128;-62
2023/05/27 09:13:56;;;;;;;16.45;4.90;;;17.60;81.50;;;;;;5054109;28;20045;-62
2023/05/27 09:16:22;;;;;;;20.73;5.20;;;17.60;83.40;;;;;;5053954;28;20056;-62
2023/05/27 09:18:48;;;;;;;;;;;17.60;80.50;;;;;;5053582;28;20044;-62
2023/05/27 09:21:14;;;;;;;18.10;5.53;;;17.60;85.90;;;;;;5055355;28;19920;-62
2023/05/27 09:23:40;;;;;;;;;;;17.80;82.30;;;;;;5050933;28;20305;-63
2023/05/27 09:26:12;;;;;;;15.68;4.25;;;18.00;80.10;;;;;;5052630;28;20049;-62
2023/05/27 09:28:38;;;;;;;16.15;4.35;;;17.90;77.20;;;;;;5058378;28;20396;-62
2023/05/27 09:31:08;;;;;;;15.20;5.07;;;17.70;78.80;;;;;;5049403;28;20033;-61
2023/05/27 09:33:36;;;;;;;14.02;4.28;;;17.80;78.60;;;;;;5028254;28;20045;-60
2023/05/27 09:36:04;;;;;;;15.70;4.47;;;17.70;76.50;;;;;;5027273;28;20057;-62
2023/05/27 09:38:30;;;;;;;11.90;4.38;;;18.00;76.00;;;;;;5033242;28;20041;-61
2023/05/27 09:41:00;;;;;;;21.13;5.28;;;18.10;74.10;;;;;;5030502;28;20041;-61
2023/05/27 09:43:27;;;;;;;17.25;4.10;;;17.90;77.80;;;;;;5028459;28;20033;-62
2023/05/27 09:46:03;;;;;;;18.80;3.90;;;17.90;77.00;;;;;;5032464;28;20140;-61
2023/05/27 09:48:32;;;;;;;13.85;4.30;;;17.90;77.20;;;;;;5029726;28;20401;-62
2023/05/27 09:51:02;;;;;;;13.90;4.47;;;17.80;77.90;;;;;;5026336;28;20079;-61
2023/05/27 09:53:30;;;;;;;19.13;4.82;;;17.70;76.60;;;;;;5030764;28;20419;-61
2023/05/27 09:55:57;;;;;;;18.88;4.85;;;17.60;78.80;;;;;;5035999;28;20264;-61
2023/05/27 09:58:24;;;;;;;13.43;4.22;;;17.80;78.60;;;;;;5037403;28;20084;-62
2023/05/27 10:00:50;;;;;;;16.05;3.90;;;17.40;80.20;;;;;;5030419;28;20044;-62
2023/05/27 10:03:16;;;;;;;12.30;4.78;;;17.40;80.40;;;;;;5027718;28;20045;-62
2023/05/27 10:05:44;;;;;;;15.45;4.10;;;17.40;78.90;;;;;;5034722;28;20084;-61
2023/05/27 10:08:12;;;;;;;13.43;4.38;;;17.40;79.30;;;;;;5034146;28;20838;-62
2023/05/27 10:10:37;;;;;;;14.20;4.72;;;17.50;81.50;;;;;;5031143;28;20855;-63
2023/05/27 10:13:03;;;;;;;;;;;17.40;83.70;;;;;;5032938;28;20041;-62
2023/05/27 10:15:33;;;;;;;16.00;5.95;;;17.50;83.80;;;;;;5027583;28;19923;-63
2023/05/27 10:18:03;;;;;;;16.40;4.57;;;17.60;80.10;;;;;;5035214;28;20044;-61
2023/05/27 10:20:33;;;;;;;13.73;4.10;;;17.80;81.90;;;;;;5020594;28;20042;-63
2023/05/27 10:23:19;;;;;;;21.90;5.07;;;17.60;82.60;;;;;;5028099;28;20029;-64
2023/05/27 10:25:49;;;;;;;19.60;4.38;;;17.60;86.30;;;;;;5027520;28;20567;-61
2023/05/27 10:28:36;;;;;;;12.65;4.28;;;17.70;84.00;;;;;;5036741;28;20145;-64
2023/05/27 10:31:07;;;;;;;17.23;5.53;;;17.80;78.30;;;;;;5035869;28;20457;-62
2023/05/27 10:33:42;;;;;;;15.57;4.22;;;17.80;77.10;;;;;;5033151;28;20103;-62
2023/05/27 10:36:17;;;;;;;13.82;4.72;;;17.80;78.60;;;;;;5025694;28;20375;-62
2023/05/27 10:38:57;;;;;;;13.83;4.33;;;17.80;75.70;;;;;;5033162;28;20065;-60
2023/05/27 10:41:23;;;;;;;17.23;4.20;;;17.90;78.50;;;;;;5032454;28;20501;-62
2023/05/27 10:43:57;;;;;;;14.02;4.28;;;17.90;79.30;;;;;;5029262;28;20034;-62
2023/05/27 10:46:23;;;;;;;20.70;5.03;;;18.10;79.10;;;;;;5039204;28;20044;-61
2023/05/27 10:48:48;;;;;;;17.17;5.53;;;18.20;80.10;;;;;;5028341;28;20042;-63
2023/05/27 10:51:14;;;;;;;;;;;18.40;82.80;;;;;;5035317;28;20478;-63
2023/05/27 10:53:40;;;;;;;13.60;4.22;;;18.20;77.70;;;;;;5026366;28;20380;-63
2023/05/27 10:56:08;;;;;;;14.55;4.72;;;18.20;81.50;;;;;;5026655;28;20728;-62
2023/05/27 10:58:35;;;;;;;13.75;5.60;;;18.50;84.30;;;;;;5032863;28;20517;-63
2023/05/27 11:01:08;;;;;;;17.70;4.47;;;18.30;79.70;;;;;;5033941;28;20108;-62
2023/05/27 11:03:34;;;;;;;13.80;5.40;;;18.30;81.60;;;;;;5051550;28;20041;-63
2023/05/27 11:06:03;;;;;;;;;;;18.50;81.30;;;;;;5053618;28;20043;-62
2023/05/27 11:08:30;;;;;;;10.38;4.72;;;18.30;78.90;;;;;;5051518;28;20015;-62
2023/05/27 11:11:03;;;;;;;16.30;4.70;;;17.90;78.60;;;;;;5042651;28;20060;-62
2023/05/27 11:13:30;;;;;;;17.25;4.97;;;17.90;79.10;;;;;;5045965;28;20040;-63
2023/05/27 11:15:56;;;;;;;10.70;3.97;;;17.90;80.20;;;;;;5039403;28;20114;-62
2023/05/27 11:18:21;;;;;;;;;;;17.70;77.40;;;;;;5053314;28;20405;-62
2023/05/27 11:20:47;;;;;;;16.23;5.13;;;17.80;84.80;;;;;;5040075;28;19924;-63
2023/05/27 11:23:13;;;;;;;14.60;4.68;;;18.10;81.60;;;;;;5051545;28;20043;-63
2023/05/27 11:25:42;;;;;;;;;;;18.00;82.00;;;;;;5052680;28;20044;-63
2023/05/27 11:28:18;;;;;;;11.63;4.10;;;18.00;81.90;;;;;;5061477;28;19977;-63
2023/05/27 11:30:44;;;;;;;15.63;4.68;;;18.00;80.40;;;;;;5044805;28;20132;-63
2023/05/27 11:33:10;;;;;;;16.98;4.93;;;18.00;84.30;;;;;;5041180;28;20129;-62
2023/05/27 11:35:35;;;;;;;16.67;4.10;;;18.20;79.40;;;;;;5031488;28;20529;-62
2023/05/27 11:38:04;;;;;;;13.52;4.40;;;18.40;81.60;;;;;;5034049;28;20045;-63
2023/05/27 11:40:37;;;;;;;14.00;4.43;;;18.60;78.10;;;;;;5024604;28;20033;-63
2023/05/27 11:43:02;;;;;;;16.00;4.50;;;18.50;79.30;;;;;;5035234;28;20105;-62
2023/05/27 11:45:28;;;;;;;;;;;18.20;75.00;;;;;;5030710;28;20397;-60
2023/05/27 11:47:54;;;;;;;12.32;4.15;;;18.10;78.30;;;;;;5033222;28;19924;-65
2023/05/27 11:50:21;;;;;;;11.75;4.20;;;18.20;79.80;;;;;;5031889;28;20060;-62
2023/05/27 11:52:54;;;;;;;20.40;5.60;;;18.30;83.90;;;;;;5034771;28;20556;-63
2023/05/27 11:55:20;;;;;;;16.10;4.80;;;18.20;85.80;;;;;;5027854;28;20045;-63
2023/05/27 11:57:46;;;;;;;13.02;5.32;;;18.20;86.60;;;;;;5033915;28;20124;-61
2023/05/27 12:00:12;;;;;;;;;;;18.30;81.20;;;;;;5034206;28;20156;-63
2023/05/27 12:02:37;;;;;;;14.10;5.10;;;18.30;80.90;;;;;;5019548;28;19975;-61
2023/05/27 12:05:06;;;;;;;12.93;4.78;;;18.40;82.00;;;;;;5028837;28;20404;-61
2023/05/27 12:07:32;;;;;;;12.57;4.68;;;18.40;81.20;;;;;;5027528;28;20059;-62
2023/05/27 12:09:57;;;;;;;10.50;4.43;;;18.50;80.80;;;;;;5028878;28;20041;-63
2023/05/27 12:12:23;;;;;;;;;;;18.60;83.20;;;;;;5023422;28;20045;-61
2023/05/27 12:14:49;;;;;;;9.43;4.25;;;18.80;79.90;;;;;;5031043;28;19944;-62
2023/05/27 12:17:14;;;;;;;;;;;18.60;78.40;;;;;;5033689;28;20121;-62
2023/05/27 12:19:40;;;;;;;16.45;4.50;;;18.70;75.40;;;;;;5033060;28;19932;-63
2023/05/27 12:22:06;;;;;;;9.98;3.97;;;18.60;79.60;;;;;;5032540;28;20093;-62
2023/05/27 12:24:31;;;;;;;15.52;4.35;;;18.70;81.70;;;;;;5033494;28;20033;-63
2023/05/27 12:26:57;;;;;;;13.82;5.03;;;18.60;82.30;;;;;;5033064;28;20041;-62
2023/05/27 12:29:24;;;;;;;10.57;4.13;;;18.70;79.30;;;;;;5032962;28;20041;-62
2023/05/27 12:31:50;;;;;;;15.02;5.18;;;18.90;78.70;;;;;;5044092;28;20072;-63
2023/05/27 12:34:16;;;;;;;11.93;4.70;;;19.00;77.60;;;;;;5053484;28;20382;-63
2023/05/27 12:36:42;;;;;;;;;;;18.90;77.10;;;;;;5053100;28;20048;-63
2023/05/27 12:39:07;;;;;;;10.30;4.90;;;19.00;74.50;;;;;;5054072;28;19916;-63
2023/05/27 12:41:33;;;;;;;;;;;19.00;75.60;;;;;;5054468;28;20105;-62
2023/05/27 12:43:59;;;;;;;13.65;4.25;;;18.90;76.90;;;;;;5058742;28;20331;-61
2023/05/27 12:46:24;;;;;;;14.23;5.00;;;19.00;75.60;;;;;;5064897;28;20044;-63
2023/05/27 12:48:50;;;;;;;10.20;4.10;;;19.00;73.70;;;;;;5059758;28;20033;-62
2023/05/27 12:51:16;;;;;;;;;;;18.90;74.40;;;;;;5054479;28;20033;-63
2023/05/27 12:53:41;;;;;;;12.35;4.28;;;18.90;74.30;;;;;;5053161;28;19920;-61